EDT,Max TemperatureF,Mean TemperatureF,Min TemperatureF,Max Dew PointF,MeanDew PointF,Min DewpointF,Max Humidity, Mean Humidity, Min Humidity, Max Sea Level PressureIn, Mean Sea Level PressureIn, Min Sea Level PressureIn, Max VisibilityMiles, Mean VisibilityMiles, Min VisibilityMiles, Max Wind SpeedMPH, Mean Wind SpeedMPH, Max Gust SpeedMPH,PrecipitationIn, CloudCover, Events, WindDirDegrees
2013-7-1,84,76,68,71,69,66,97,82,53,30.03,29.95,29.88,10,8,3,6,1,,0.06,6,Rain,176
2013-7-2,78,74,70,72,70,68,96,89,77,30.22,30.12,30.02,10,9,2,8,2,,0.21,8,Rain,172
2013-7-3,81,76,70,74,72,69,97,91,70,30.28,30.24,30.17,10,9,3,9,1,,0.58,7,Rain-Thunderstorm,147
2013-7-4,88,78,69,73,71,68,98,86,55,30.32,30.27,30.23,10,9,1,13,2,28,0.47,6,Rain-Thunderstorm,171
2013-7-5,85,76,68,75,71,67,98,87,62,30.32,30.27,30.23,10,8,2,8,1,,0.05,5,Rain-Thunderstorm,193
2013-7-6,88,78,69,73,70,67,98,81,52,30.30,30.24,30.17,10,8,0,7,1,,0.58,6,Fog-Rain-Thunderstorm,191
2013-7-7,86,78,69,74,71,68,98,88,61,30.24,30.19,30.13,10,8,0,8,1,,0.80,7,Fog-Rain-Thunderstorm,222
2013-7-8,88,78,68,73,69,67,98,80,51,30.24,30.19,30.15,10,9,2,6,1,,0.53,4,Rain-Thunderstorm,201
2013-7-9,90,79,68,75,71,68,97,81,48,30.20,30.16,30.10,10,8,4,6,1,,0.00,1,Thunderstorm,173
2013-7-10,88,79,70,75,72,69,96,83,60,30.14,30.07,29.99,10,10,5,7,2,,0.00,1,Rain-Thunderstorm,211
2013-7-11,83,76,70,75,71,70,97,89,68,30.01,29.97,29.93,10,9,4,8,1,,0.18,6,Rain-Thunderstorm,212
2013-7-12,78,73,68,70,67,65,97,84,64,30.10,30.01,29.93,10,9,5,12,2,17,0.00,7,Rain,51
2013-7-13,79,74,68,72,68,65,95,87,73,30.23,30.17,30.10,10,10,5,10,2,,0.00,8,Rain-Thunderstorm,70
2013-7-14,88,80,71,72,70,68,95,78,52,30.37,30.32,30.23,10,10,5,9,6,,0.02,6,Rain,119
2013-7-15,91,78,66,73,69,65,98,78,44,30.40,30.36,30.32,10,8,2,6,0,,0.00,3,,77
2013-7-16,95,79,63,75,69,63,98,76,41,30.35,30.31,30.26,10,9,2,6,1,,0.00,1,,24
2013-7-17,94,82,70,76,72,69,96,77,47,30.31,30.26,30.20,10,8,4,7,1,18,0.00,2,Rain-Thunderstorm,62
2013-7-18,95,82,68,78,71,66,97,77,39,30.22,30.18,30.09,10,7,1,5,0,,0.00,1,Thunderstorm,118
2013-7-19,92,81,70,74,72,70,97,78,50,30.15,30.09,30.03,10,7,1,8,1,,0.00,1,Thunderstorm,223
2013-7-20,88,80,73,75,72,68,92,81,61,30.06,30.02,29.97,10,10,10,7,2,,0.00,3,Thunderstorm,222
2013-7-21,90,79,68,74,71,67,97,82,55,30.04,30.01,29.98,10,9,3,6,1,,0.00,2,Rain-Thunderstorm,216
2013-7-22,89,78,68,72,71,68,98,81,53,30.02,29.94,29.87,10,7,0,7,1,,0.00,4,Fog,218
2013-7-23,89,78,68,75,70,67,97,79,47,29.88,29.84,29.78,10,9,3,7,2,,0.03,3,Rain,262
2013-7-24,88,76,65,71,67,63,98,75,44,29.93,29.85,29.80,10,8,1,10,1,,0.00,1,,349
2013-7-25,83,74,64,69,64,59,97,77,50,30.10,30.01,29.93,10,9,2,8,3,,0.26,4,Rain-Thunderstorm,58
2013-7-26,84,73,62,69,65,62,98,79,51,30.17,30.11,30.07,10,8,2,6,1,,0.00,4,,199
2013-7-27,72,69,66,70,67,65,97,94,86,30.10,30.05,29.99,10,5,2,6,0,,0.90,6,Rain,157
2013-7-28,85,76,66,72,68,65,98,85,50,30.05,30.00,29.96,10,7,1,7,1,24,0.45,6,Rain-Thunderstorm,241
2013-7-29,83,72,60,69,62,57,99,75,43,30.24,30.15,30.05,10,8,1,6,1,,0.00,2,,346
2013-7-30,83,70,57,70,61,56,99,78,43,30.30,30.24,30.20,10,9,5,5,1,,0.00,2,,39
2013-7-31,76,71,66,68,66,64,97,88,66,30.21,30.15,30.05,10,8,2,7,0,,0.22,6,Rain,339